Time;durP1;ratioP1;P1;durP2;ratioP2;P2;SDS_P1;SDS_P2;PMS_P1;PMS_P2;Temp;Humidity;BMP_temperature;BMP_pressure;BME280_temperature;BME280_humidity;BME280_pressure;Samples;Min_cycle;Max_cycle;Signal;HPM_P1;HPM_P2
2021/10/19 00:00:56;;;;;;;30.60;17.10;;;8.40;99.80;;;;;;5037259;28;20494;-87
2021/10/19 00:03:24;;;;;;;26.23;15.43;;;8.40;99.80;;;;;;5054353;28;20514;-88
2021/10/19 00:05:53;;;;;;;28.60;16.30;;;8.40;99.80;;;;;;5042077;28;20471;-87
2021/10/19 00:08:22;;;;;;;33.33;17.10;;;8.40;99.80;;;;;;5027635;28;20472;-86
2021/10/19 00:10:50;;;;;;;30.47;16.50;;;8.40;99.80;;;;;;5044914;28;20478;-88
2021/10/19 00:13:18;;;;;;;27.63;15.93;;;8.40;99.80;;;;;;5035135;28;20468;-87
2021/10/19 00:15:47;;;;;;;32.10;17.77;;;8.40;99.80;;;;;;5045754;28;20486;-87
2021/10/19 00:18:15;;;;;;;24.53;15.93;;;8.40;99.80;;;;;;5028287;28;20478;-87
2021/10/19 00:20:43;;;;;;;31.67;17.20;;;8.40;99.80;;;;;;5044426;28;20458;-87
2021/10/19 00:23:11;;;;;;;26.20;15.47;;;8.40;99.80;;;;;;5065129;28;20470;-87
2021/10/19 00:25:40;;;;;;;26.40;16.40;;;8.40;99.80;;;;;;5045734;28;20485;-87
2021/10/19 00:28:08;;;;;;;22.53;15.43;;;8.40;99.80;;;;;;5050145;28;20467;-87
2021/10/19 00:30:36;;;;;;;27.17;15.80;;;8.40;99.80;;;;;;5052626;28;21232;-87
2021/10/19 00:33:04;;;;;;;30.40;16.63;;;8.40;99.80;;;;;;5040791;28;20472;-87
2021/10/19 00:35:32;;;;;;;22.93;15.57;;;8.40;99.80;;;;;;5032550;28;20479;-87
2021/10/19 00:38:00;;;;;;;30.80;15.20;;;8.30;99.80;;;;;;5054862;28;20467;-86
2021/10/19 00:40:31;;;;;;;27.13;15.80;;;8.30;99.80;;;;;;5055104;28;20527;-87
2021/10/19 00:43:00;;;;;;;30.07;15.60;;;8.30;99.80;;;;;;5039976;28;20471;-87
2021/10/19 00:45:28;;;;;;;21.10;14.60;;;8.30;99.80;;;;;;5035730;28;20476;-87
2021/10/19 00:47:56;;;;;;;26.50;15.60;;;8.30;99.80;;;;;;5020826;28;20471;-87
2021/10/19 00:50:24;;;;;;;27.40;16.13;;;8.30;99.80;;;;;;5035556;28;20587;-88
2021/10/19 00:52:55;;;;;;;26.20;15.90;;;8.20;99.80;;;;;;5050748;28;20466;-87
2021/10/19 00:55:23;;;;;;;24.40;14.97;;;8.30;99.80;;;;;;5044684;28;20477;-87
2021/10/19 00:57:51;;;;;;;28.87;17.13;;;8.30;99.80;;;;;;5026063;28;20912;-87
2021/10/19 01:00:20;;;;;;;32.23;16.17;;;8.30;99.80;;;;;;5041720;28;20478;-87
2021/10/19 01:02:48;;;;;;;26.60;16.40;;;8.30;99.80;;;;;;5051800;28;20463;-86
2021/10/19 01:05:16;;;;;;;30.07;16.10;;;8.30;99.80;;;;;;5036625;28;20487;-87
2021/10/19 01:07:45;;;;;;;20.67;13.60;;;8.30;99.80;;;;;;5030242;28;21123;-87
2021/10/19 01:10:13;;;;;;;27.67;16.53;;;8.30;99.80;;;;;;5062995;28;20469;-87
2021/10/19 01:12:42;;;;;;;24.10;15.73;;;8.40;99.80;;;;;;5055130;28;20977;-87
2021/10/19 01:15:12;;;;;;;28.70;15.83;;;8.40;99.80;;;;;;5045050;28;20479;-87
2021/10/19 01:17:45;;;;;;;27.47;15.70;;;8.40;99.80;;;;;;5045679;28;20854;-87
2021/10/19 01:20:23;;;;;;;26.17;16.30;;;8.40;99.80;;;;;;5037686;28;20475;-87
2021/10/19 01:22:51;;;;;;;28.90;16.93;;;8.40;99.80;;;;;;5034275;28;20476;-87
2021/10/19 01:25:22;;;;;;;27.80;16.63;;;8.50;99.80;;;;;;5031227;28;20480;-87
2021/10/19 01:27:51;;;;;;;25.17;15.30;;;8.50;99.80;;;;;;5023255;28;20497;-88
2021/10/19 01:30:20;;;;;;;29.43;16.50;;;8.40;99.80;;;;;;5040268;28;20471;-87
2021/10/19 01:32:49;;;;;;;28.30;16.40;;;8.50;99.80;;;;;;5039548;28;20483;-87
2021/10/19 01:35:17;;;;;;;29.83;15.77;;;8.40;99.80;;;;;;5035556;28;20472;-87
2021/10/19 01:37:47;;;;;;;28.40;15.43;;;8.40;99.80;;;;;;5047106;28;20467;-87
2021/10/19 01:40:16;;;;;;;26.33;15.23;;;8.40;99.80;;;;;;5049198;28;20483;-87
2021/10/19 01:42:44;;;;;;;26.50;15.77;;;8.40;99.80;;;;;;5051864;28;20542;-87
2021/10/19 01:45:13;;;;;;;26.73;15.10;;;8.40;99.80;;;;;;5042685;28;20484;-86
2021/10/19 01:47:42;;;;;;;24.23;14.80;;;8.40;99.80;;;;;;5039079;28;20502;-87
2021/10/19 01:50:10;;;;;;;27.23;16.30;;;8.40;99.80;;;;;;5038099;28;20455;-87
2021/10/19 01:52:39;;;;;;;37.50;16.97;;;8.50;99.80;;;;;;5053314;28;20472;-87
2021/10/19 01:55:09;;;;;;;22.73;14.37;;;8.50;99.80;;;;;;5030638;28;20875;-87
2021/10/19 01:57:38;;;;;;;23.80;15.93;;;8.50;99.80;;;;;;5036294;28;20486;-87
2021/10/19 02:00:08;;;;;;;24.77;15.40;;;8.50;99.80;;;;;;5048490;28;20485;-87
2021/10/19 02:02:36;;;;;;;28.27;15.20;;;8.50;99.80;;;;;;5051882;28;20473;-88
2021/10/19 02:05:05;;;;;;;28.90;16.40;;;8.50;99.80;;;;;;5047279;28;20474;-88
2021/10/19 02:07:33;;;;;;;31.90;16.10;;;8.50;99.80;;;;;;5055015;28;20481;-87
2021/10/19 02:10:01;;;;;;;29.23;16.43;;;8.50;99.80;;;;;;5023478;28;21092;-88
2021/10/19 02:12:30;;;;;;;28.20;15.23;;;8.50;99.80;;;;;;5063701;28;20482;-88
2021/10/19 02:14:58;;;;;;;29.70;17.13;;;8.50;99.80;;;;;;5035372;28;20474;-88
2021/10/19 02:17:27;;;;;;;27.00;15.03;;;8.50;99.80;;;;;;5041634;28;20488;-88
2021/10/19 02:19:55;;;;;;;28.07;16.10;;;8.50;99.80;;;;;;5051966;28;20887;-88
2021/10/19 02:22:23;;;;;;;26.73;16.40;;;8.50;99.80;;;;;;5058285;28;20475;-87
2021/10/19 02:24:51;;;;;;;26.80;16.27;;;8.50;99.80;;;;;;5044600;28;20642;-88
2021/10/19 02:27:19;;;;;;;27.07;16.03;;;8.50;99.80;;;;;;5049351;28;20574;-88
2021/10/19 02:29:48;;;;;;;24.37;15.27;;;8.50;99.80;;;;;;5068517;28;20477;-88
2021/10/19 02:32:16;;;;;;;29.20;17.10;;;8.50;99.80;;;;;;5040233;28;20468;-88
2021/10/19 02:34:44;;;;;;;34.80;16.53;;;8.50;99.80;;;;;;5037456;28;20497;-88
2021/10/19 02:37:12;;;;;;;29.53;16.80;;;8.50;99.80;;;;;;5047415;28;20467;-88
2021/10/19 02:39:40;;;;;;;31.83;17.50;;;8.50;99.80;;;;;;5053192;28;20459;-88
2021/10/19 02:42:08;;;;;;;24.30;15.10;;;8.50;99.80;;;;;;5033773;28;20458;-87
2021/10/19 02:44:36;;;;;;;31.77;17.47;;;8.50;99.80;;;;;;5049451;28;20869;-88
2021/10/19 02:47:06;;;;;;;26.47;15.87;;;8.50;99.80;;;;;;5034594;28;20475;-87
2021/10/19 02:49:34;;;;;;;28.77;16.33;;;8.50;99.80;;;;;;5034589;28;20483;-88
2021/10/19 02:52:02;;;;;;;30.87;17.63;;;8.50;99.80;;;;;;5052228;28;20481;-87
2021/10/19 02:54:30;;;;;;;26.47;14.97;;;8.50;99.80;;;;;;5053979;28;20481;-88
2021/10/19 02:56:58;;;;;;;32.80;17.03;;;8.50;99.80;;;;;;5049894;28;20477;-88
2021/10/19 02:59:26;;;;;;;26.33;16.53;;;8.40;99.80;;;;;;5044316;28;20484;-88
2021/10/19 03:01:53;;;;;;;26.90;15.50;;;8.50;99.80;;;;;;5054141;28;20471;-88
2021/10/19 03:04:23;;;;;;;25.73;16.70;;;8.50;99.80;;;;;;5052855;28;21132;-88
2021/10/19 03:06:51;;;;;;;27.03;16.33;;;8.50;99.80;;;;;;5034932;28;20488;-87
2021/10/19 03:09:19;;;;;;;30.87;17.53;;;8.50;99.80;;;;;;5047101;28;20476;-87
2021/10/19 03:11:47;;;;;;;27.17;16.33;;;8.50;99.80;;;;;;5049164;28;20537;-87
2021/10/19 03:14:15;;;;;;;27.53;16.70;;;8.60;99.80;;;;;;5029814;28;20470;-87
2021/10/19 03:16:43;;;;;;;31.20;17.37;;;8.60;99.80;;;;;;5052787;28;20477;-87
2021/10/19 03:19:11;;;;;;;28.90;16.23;;;8.60;99.80;;;;;;5047738;28;20968;-87
2021/10/19 03:21:41;;;;;;;25.00;16.53;;;8.60;99.80;;;;;;5058194;28;20469;-87
2021/10/19 03:24:09;;;;;;;25.10;16.37;;;8.60;99.80;;;;;;5039963;28;20860;-89
2021/10/19 03:26:37;;;;;;;36.77;19.37;;;8.60;99.80;;;;;;5034454;28;20481;-88
2021/10/19 03:29:05;;;;;;;28.67;16.50;;;8.70;99.80;;;;;;5058850;28;20474;-88
2021/10/19 03:31:35;;;;;;;30.83;17.63;;;8.70;99.80;;;;;;5051744;28;20558;-88
2021/10/19 03:34:03;;;;;;;26.73;16.10;;;8.70;99.80;;;;;;5045884;28;20552;-88
2021/10/19 03:36:32;;;;;;;30.93;18.27;;;8.70;99.80;;;;;;5043936;28;20476;-89
2021/10/19 03:39:01;;;;;;;36.07;17.73;;;8.70;99.80;;;;;;5055158;28;20468;-88
2021/10/19 03:41:29;;;;;;;31.13;19.07;;;8.80;99.80;;;;;;5056178;28;20466;-88
2021/10/19 03:43:57;;;;;;;27.40;17.40;;;8.70;99.80;;;;;;5045376;28;20481;-88
2021/10/19 03:46:25;;;;;;;29.60;17.23;;;8.70;99.80;;;;;;5059348;28;20810;-88
2021/10/19 03:48:53;;;;;;;32.70;17.23;;;8.80;99.80;;;;;;5047283;28;20495;-88
2021/10/19 03:51:21;;;;;;;33.47;17.90;;;8.80;99.80;;;;;;5048067;28;20495;-89
2021/10/19 03:53:51;;;;;;;29.07;17.10;;;8.80;99.80;;;;;;5048572;28;20480;-88
2021/10/19 03:56:20;;;;;;;24.13;16.13;;;8.80;99.80;;;;;;5034580;28;20477;-88
2021/10/19 03:58:49;;;;;;;31.63;18.53;;;8.80;99.80;;;;;;5030529;28;20500;-89
2021/10/19 04:01:21;;;;;;;33.47;17.53;;;8.80;99.80;;;;;;5020950;28;20461;-88
2021/10/19 04:03:50;;;;;;;29.83;17.10;;;8.80;99.80;;;;;;5038929;28;21022;-88
2021/10/19 04:06:18;;;;;;;30.33;16.67;;;8.70;99.80;;;;;;5039265;28;20880;-89
2021/10/19 04:08:46;;;;;;;31.20;17.37;;;8.70;99.80;;;;;;5043592;28;20505;-88
2021/10/19 04:11:14;;;;;;;30.77;16.10;;;8.70;99.80;;;;;;5060584;28;20472;-88
2021/10/19 04:13:43;;;;;;;31.23;17.73;;;8.70;99.80;;;;;;5063548;28;20483;-88
2021/10/19 04:16:11;;;;;;;28.77;17.37;;;8.70;99.80;;;;;;5046673;28;20478;-88
2021/10/19 04:18:40;;;;;;;24.67;15.20;;;8.70;99.80;;;;;;5059470;28;20491;-88
2021/10/19 04:21:08;;;;;;;26.90;17.40;;;8.70;99.80;;;;;;5055871;28;20471;-88
2021/10/19 04:23:37;;;;;;;28.57;16.97;;;8.70;99.80;;;;;;5049160;28;21203;-88
2021/10/19 04:26:05;;;;;;;22.47;16.13;;;8.70;99.80;;;;;;5062779;28;20474;-89
2021/10/19 04:28:33;;;;;;;27.77;16.23;;;8.70;99.80;;;;;;5036429;28;21208;-88
2021/10/19 04:31:03;;;;;;;28.30;16.90;;;8.70;99.80;;;;;;5041679;28;20467;-88
2021/10/19 04:33:31;;;;;;;30.83;16.60;;;8.70;99.80;;;;;;5045212;28;20485;-88
2021/10/19 04:35:59;;;;;;;28.57;18.73;;;8.70;99.80;;;;;;5045615;28;20463;-89
2021/10/19 04:38:27;;;;;;;33.43;17.03;;;8.70;99.80;;;;;;5046575;28;20485;-88
2021/10/19 04:40:57;;;;;;;29.30;18.47;;;8.70;99.80;;;;;;5057677;28;20479;-88
2021/10/19 04:43:25;;;;;;;32.53;19.47;;;8.70;99.80;;;;;;5061082;28;20473;-88
2021/10/19 04:45:54;;;;;;;30.60;19.07;;;8.70;99.80;;;;;;5054648;28;20573;-89
2021/10/19 04:48:23;;;;;;;31.23;18.30;;;8.70;99.80;;;;;;5037685;28;20477;-88
2021/10/19 04:50:51;;;;;;;34.60;19.67;;;8.70;99.80;;;;;;5026236;28;20475;-89
2021/10/19 04:53:19;;;;;;;39.13;20.47;;;8.70;99.80;;;;;;5051178;28;20485;-89
2021/10/19 04:55:48;;;;;;;33.07;19.67;;;8.70;99.80;;;;;;5051799;28;20544;-89
2021/10/19 04:58:16;;;;;;;38.10;21.80;;;8.70;99.80;;;;;;5030124;28;20483;-88
2021/10/19 05:00:47;;;;;;;34.63;19.73;;;8.80;99.80;;;;;;5054737;28;20469;-89
2021/10/19 05:03:16;;;;;;;34.40;19.80;;;8.80;99.80;;;;;;5038482;28;20483;-88
2021/10/19 05:05:46;;;;;;;36.80;20.30;;;8.90;99.80;;;;;;5047353;28;20460;-88
2021/10/19 05:08:14;;;;;;;35.47;21.47;;;8.90;99.80;;;;;;5014591;28;20486;-89
2021/10/19 05:10:43;;;;;;;29.50;18.43;;;8.90;99.80;;;;;;5044284;28;20489;-89
2021/10/19 05:13:11;;;;;;;35.47;19.57;;;8.90;99.80;;;;;;5046501;28;21023;-88
2021/10/19 05:15:39;;;;;;;33.70;20.53;;;8.90;99.80;;;;;;5055611;28;20475;-89
2021/10/19 05:18:07;;;;;;;36.57;20.83;;;9.00;99.80;;;;;;5047425;28;20469;-88
2021/10/19 05:20:35;;;;;;;35.63;21.10;;;8.90;99.80;;;;;;5048228;28;20624;-89
2021/10/19 05:23:04;;;;;;;33.33;19.53;;;8.90;99.80;;;;;;5053168;28;21145;-89
2021/10/19 05:25:33;;;;;;;33.57;19.30;;;9.00;99.80;;;;;;5056317;28;20510;-90
2021/10/19 05:28:02;;;;;;;37.07;21.50;;;8.90;99.80;;;;;;5047232;28;21096;-89
2021/10/19 05:30:30;;;;;;;36.20;20.90;;;8.90;99.80;;;;;;5050478;28;20472;-89
2021/10/19 05:32:58;;;;;;;36.70;19.07;;;8.90;99.80;;;;;;5042493;28;20467;-89
2021/10/19 05:35:26;;;;;;;36.70;19.87;;;9.00;99.80;;;;;;5040248;28;20546;-88
2021/10/19 05:37:54;;;;;;;40.17;21.57;;;9.00;99.80;;;;;;5027094;28;20461;-89
2021/10/19 05:40:23;;;;;;;32.23;17.53;;;9.00;99.80;;;;;;5039165;28;20486;-88
2021/10/19 05:42:51;;;;;;;34.80;20.27;;;9.00;99.80;;;;;;5020858;28;20477;-88
2021/10/19 05:45:20;;;;;;;41.10;21.70;;;9.00;99.80;;;;;;5044868;28;20477;-88
2021/10/19 05:47:48;;;;;;;32.40;19.40;;;9.00;99.80;;;;;;5046885;28;21001;-88
2021/10/19 05:50:17;;;;;;;34.27;19.60;;;9.00;99.80;;;;;;5045532;28;20455;-88
2021/10/19 05:52:45;;;;;;;38.73;20.80;;;9.00;99.80;;;;;;5039243;28;20902;-88
2021/10/19 05:55:14;;;;;;;35.80;20.87;;;9.00;99.80;;;;;;5060249;28;20471;-88
2021/10/19 05:57:43;;;;;;;33.70;19.37;;;9.00;99.80;;;;;;5065190;28;21115;-88
2021/10/19 06:00:12;;;;;;;34.70;19.30;;;9.10;99.80;;;;;;5036001;28;21290;-88
2021/10/19 06:02:40;;;;;;;37.80;19.30;;;9.00;99.80;;;;;;5056910;28;20531;-88
2021/10/19 06:05:09;;;;;;;34.40;17.50;;;9.00;99.80;;;;;;5051121;28;20461;-88
2021/10/19 06:07:37;;;;;;;31.97;20.17;;;9.00;99.80;;;;;;5062318;28;20477;-88
2021/10/19 06:10:06;;;;;;;33.17;19.97;;;9.00;99.80;;;;;;5043866;28;20839;-88
2021/10/19 06:12:34;;;;;;;31.50;20.10;;;9.00;99.80;;;;;;5044081;28;20466;-87
2021/10/19 06:15:04;;;;;;;30.47;19.27;;;9.00;99.80;;;;;;5061044;28;20479;-87
2021/10/19 06:17:33;;;;;;;31.10;18.27;;;9.00;99.80;;;;;;5044215;28;20480;-87
2021/10/19 06:20:01;;;;;;;29.50;18.73;;;9.00;99.80;;;;;;5051535;28;20463;-88
2021/10/19 06:22:29;;;;;;;30.27;16.83;;;9.00;99.80;;;;;;5055713;28;20482;-88
2021/10/19 06:24:57;;;;;;;24.87;15.63;;;9.00;99.80;;;;;;5049939;28;20471;-88
2021/10/19 06:27:25;;;;;;;33.30;17.63;;;9.00;99.80;;;;;;5054747;28;20475;-88
2021/10/19 06:29:53;;;;;;;32.20;16.60;;;9.00;99.80;;;;;;5063421;28;20471;-88
2021/10/19 06:32:22;;;;;;;28.40;17.13;;;9.00;99.80;;;;;;5050621;28;21153;-88
2021/10/19 06:34:50;;;;;;;25.17;15.37;;;9.10;99.80;;;;;;5050067;28;22125;-88
2021/10/19 06:37:18;;;;;;;24.93;16.37;;;9.10;99.80;;;;;;5050036;28;20470;-87
2021/10/19 06:39:46;;;;;;;28.70;16.07;;;9.10;99.80;;;;;;5062806;28;20465;-88
2021/10/19 06:42:14;;;;;;;26.07;15.00;;;9.10;99.80;;;;;;5038351;28;20467;-87
2021/10/19 06:44:42;;;;;;;29.87;16.27;;;9.10;99.80;;;;;;5035162;28;20488;-88
2021/10/19 06:47:14;;;;;;;28.23;16.90;;;9.10;99.80;;;;;;5043676;28;20472;-88
2021/10/19 06:49:44;;;;;;;30.57;16.10;;;9.10;99.80;;;;;;5059114;28;20481;-88
2021/10/19 06:52:12;;;;;;;28.47;16.93;;;9.20;99.80;;;;;;5044600;28;20543;-87
2021/10/19 06:54:40;;;;;;;25.40;15.13;;;9.10;99.80;;;;;;5057683;28;20473;-88
2021/10/19 06:57:08;;;;;;;23.80;15.70;;;9.20;99.80;;;;;;5053661;28;20822;-88
2021/10/19 06:59:36;;;;;;;27.00;15.97;;;9.20;99.80;;;;;;5060751;28;20467;-88
2021/10/19 07:02:04;;;;;;;23.50;15.10;;;9.20;99.80;;;;;;5041161;28;20853;-88
2021/10/19 07:04:35;;;;;;;27.53;16.57;;;9.20;99.80;;;;;;5040526;28;20507;-88
2021/10/19 07:07:04;;;;;;;26.83;14.67;;;9.20;99.80;;;;;;5047497;28;20503;-88
2021/10/19 07:09:32;;;;;;;26.03;14.30;;;9.20;99.80;;;;;;5051608;28;20566;-88
2021/10/19 07:12:03;;;;;;;22.87;13.90;;;9.20;99.80;;;;;;5058381;28;20511;-88
2021/10/19 07:14:31;;;;;;;21.20;13.43;;;9.20;99.80;;;;;;5045360;28;20482;-88
2021/10/19 07:16:59;;;;;;;22.63;14.03;;;9.20;99.80;;;;;;5049682;28;20477;-88
2021/10/19 07:19:27;;;;;;;23.77;13.90;;;9.20;99.80;;;;;;5041328;28;20473;-88
2021/10/19 07:21:55;;;;;;;22.60;13.50;;;9.20;99.80;;;;;;5041040;28;20489;-88
2021/10/19 07:24:24;;;;;;;23.90;13.70;;;9.30;99.80;;;;;;5030461;28;20480;-88
2021/10/19 07:26:52;;;;;;;19.70;13.70;;;9.30;99.80;;;;;;5042985;28;20468;-88
2021/10/19 07:29:20;;;;;;;19.30;12.50;;;9.30;99.80;;;;;;5052094;28;20485;-88
2021/10/19 07:31:48;;;;;;;25.50;15.33;;;9.30;99.80;;;;;;5053545;28;20459;-88
2021/10/19 07:34:16;;;;;;;23.87;15.07;;;9.30;99.80;;;;;;5046902;28;22312;-88
2021/10/19 07:36:44;;;;;;;24.83;15.70;;;9.30;99.80;;;;;;5033772;28;20871;-88
2021/10/19 07:39:12;;;;;;;22.27;13.57;;;9.30;99.80;;;;;;5052588;28;20471;-88
2021/10/19 07:41:41;;;;;;;24.40;13.43;;;9.30;99.80;;;;;;5052927;28;20469;-88
2021/10/19 07:44:09;;;;;;;24.23;14.30;;;9.40;99.80;;;;;;5040915;28;20518;-88
2021/10/19 07:46:38;;;;;;;21.87;14.40;;;9.40;99.80;;;;;;5046628;28;20481;-87
2021/10/19 07:49:06;;;;;;;19.10;13.40;;;9.40;99.80;;;;;;5057515;28;20467;-88
2021/10/19 07:51:34;;;;;;;23.40;14.67;;;9.50;99.80;;;;;;5047503;28;20471;-89
2021/10/19 07:54:02;;;;;;;23.23;13.80;;;9.50;99.80;;;;;;5058122;28;20471;-88
2021/10/19 07:56:30;;;;;;;24.87;14.63;;;9.60;99.80;;;;;;5039331;28;20996;-88
2021/10/19 07:59:05;;;;;;;24.83;13.37;;;9.60;99.80;;;;;;5041500;28;20475;-88
2021/10/19 08:01:33;;;;;;;20.93;13.40;;;9.60;99.80;;;;;;4995416;28;20471;-88
2021/10/19 08:04:02;;;;;;;25.63;14.60;;;9.60;99.80;;;;;;5036034;28;20549;-88
2021/10/19 08:06:30;;;;;;;26.53;14.10;;;9.60;99.80;;;;;;5057733;28;20471;-88
2021/10/19 08:08:59;;;;;;;22.23;15.70;;;9.60;99.80;;;;;;5052189;28;20843;-88
2021/10/19 08:11:27;;;;;;;23.70;15.70;;;9.60;99.80;;;;;;5052248;28;20476;-88
2021/10/19 08:13:56;;;;;;;25.90;15.80;;;9.60;99.80;;;;;;5058921;28;21021;-88
2021/10/19 08:16:26;;;;;;;22.33;14.50;;;9.70;99.80;;;;;;5047908;28;20473;-88
2021/10/19 08:18:54;;;;;;;24.47;14.97;;;9.70;99.80;;;;;;5025941;28;20467;-88
2021/10/19 08:21:26;;;;;;;29.47;16.87;;;9.70;99.80;;;;;;5021352;28;20478;-88
2021/10/19 08:23:54;;;;;;;23.13;14.50;;;9.80;99.80;;;;;;5037078;28;20481;-88
2021/10/19 08:26:24;;;;;;;26.57;15.30;;;9.80;99.80;;;;;;5017790;28;20474;-88
2021/10/19 08:28:54;;;;;;;24.33;15.70;;;9.80;99.80;;;;;;5015316;28;20459;-88
2021/10/19 08:31:22;;;;;;;22.70;13.97;;;9.90;99.80;;;;;;5007948;28;20574;-88
2021/10/19 08:33:52;;;;;;;21.57;14.40;;;9.90;99.80;;;;;;5022601;28;20483;-88
2021/10/19 08:36:21;;;;;;;25.53;15.50;;;10.00;99.80;;;;;;5029144;28;20474;-88
2021/10/19 08:38:50;;;;;;;22.20;14.07;;;10.00;99.80;;;;;;5030206;28;25325;-88
2021/10/19 08:41:19;;;;;;;23.17;14.27;;;10.00;99.80;;;;;;5048166;28;20487;-88
2021/10/19 08:43:48;;;;;;;23.13;14.63;;;10.00;99.80;;;;;;5047992;28;20463;-89
2021/10/19 08:46:18;;;;;;;30.23;13.77;;;10.00;99.80;;;;;;5047664;28;20500;-88
2021/10/19 08:48:47;;;;;;;19.93;13.97;;;10.00;99.80;;;;;;5039958;28;20467;-88
2021/10/19 08:51:16;;;;;;;19.90;13.93;;;10.00;99.80;;;;;;5045317;28;20462;-89
2021/10/19 08:53:44;;;;;;;23.17;13.20;;;9.90;99.80;;;;;;5047085;28;20473;-87
2021/10/19 08:56:13;;;;;;;16.73;11.93;;;9.90;99.80;;;;;;5054898;28;20561;-87
2021/10/19 08:58:41;;;;;;;15.10;10.90;;;9.90;99.80;;;;;;5046252;28;20482;-88
2021/10/19 09:01:11;;;;;;;18.33;9.17;;;9.90;99.80;;;;;;5035920;28;21055;-87
2021/10/19 09:03:50;;;;;;;13.00;8.30;;;9.90;99.80;;;;;;5057263;28;20533;-87
2021/10/19 09:06:32;;;;;;;11.27;8.30;;;9.80;99.80;;;;;;5053024;28;20468;-87
2021/10/19 09:09:07;;;;;;;10.17;7.53;;;9.80;99.80;;;;;;5043683;28;20471;-88
2021/10/19 09:11:40;;;;;;;10.13;6.43;;;9.80;99.80;;;;;;5048525;28;20492;-87
2021/10/19 09:14:10;;;;;;;9.10;6.77;;;9.80;99.80;;;;;;5055349;28;21004;-87
2021/10/19 09:16:40;;;;;;;8.70;6.97;;;9.80;99.80;;;;;;5063077;28;20522;-88
2021/10/19 09:19:11;;;;;;;9.10;6.53;;;9.80;99.80;;;;;;5046917;28;20529;-87
2021/10/19 09:21:52;;;;;;;8.50;6.27;;;9.90;99.80;;;;;;5051004;28;20881;-88
2021/10/19 09:24:31;;;;;;;7.27;6.50;;;9.90;99.80;;;;;;5055728;28;20480;-87
2021/10/19 09:27:02;;;;;;;6.83;5.70;;;9.90;99.80;;;;;;5067671;28;20503;-87
2021/10/19 09:29:34;;;;;;;7.53;6.10;;;9.90;99.80;;;;;;5060159;28;20480;-87
2021/10/19 09:32:05;;;;;;;7.10;6.07;;;10.00;99.80;;;;;;5058476;28;21030;-87
2021/10/19 09:34:36;;;;;;;9.00;6.37;;;10.00;99.80;;;;;;5053231;28;20984;-87
2021/10/19 09:37:07;;;;;;;10.80;5.80;;;10.00;99.80;;;;;;5045870;28;20992;-88
2021/10/19 09:40:10;;;;;;;7.77;6.67;;;10.00;99.80;;;;;;5062133;28;21006;-88
2021/10/19 09:42:38;;;;;;;5.90;5.30;;;10.00;99.80;;;;;;5049936;28;20473;-88
2021/10/19 09:45:07;;;;;;;7.10;6.30;;;10.10;99.80;;;;;;5059693;28;20471;-88
2021/10/19 09:47:37;;;;;;;7.77;5.23;;;10.10;99.80;;;;;;5043586;28;20535;-87
2021/10/19 09:50:07;;;;;;;5.23;4.73;;;10.20;99.80;;;;;;5054875;28;20588;-88
2021/10/19 09:52:41;;;;;;;7.57;5.03;;;10.20;99.80;;;;;;5061114;28;20479;-88
2021/10/19 09:55:10;;;;;;;7.17;5.50;;;10.30;99.80;;;;;;5066861;28;20539;-88
2021/10/19 09:57:42;;;;;;;4.93;4.53;;;10.40;99.80;;;;;;5068259;28;20506;-88
2021/10/19 10:00:11;;;;;;;5.67;5.13;;;10.50;99.80;;;;;;5055582;28;20564;-88
2021/10/19 10:02:40;;;;;;;6.27;4.40;;;10.60;99.80;;;;;;5053299;28;20543;-88
2021/10/19 10:05:09;;;;;;;6.70;3.70;;;10.70;99.80;;;;;;5039987;28;20476;-88
2021/10/19 10:07:43;;;;;;;5.83;5.03;;;10.70;99.80;;;;;;5056216;28;20463;-88
2021/10/19 10:10:15;;;;;;;7.63;4.60;;;10.70;99.80;;;;;;5055572;28;20639;-88
2021/10/19 10:12:49;;;;;;;4.50;4.10;;;10.80;99.80;;;;;;5053559;28;20552;-89
2021/10/19 10:15:26;;;;;;;6.40;5.80;;;10.70;99.80;;;;;;5056509;28;20488;-89
2021/10/19 10:18:01;;;;;;;5.47;4.77;;;10.70;99.80;;;;;;5037970;28;20852;-88
2021/10/19 10:20:34;;;;;;;5.07;4.57;;;10.70;99.80;;;;;;5038491;28;20486;-89
2021/10/19 10:23:15;;;;;;;5.60;4.93;;;10.70;99.80;;;;;;5051490;28;20480;-88
2021/10/19 10:25:43;;;;;;;4.73;4.33;;;10.60;99.80;;;;;;5046302;28;20460;-89
2021/10/19 10:28:17;;;;;;;5.13;4.43;;;10.60;99.80;;;;;;5050259;28;20511;-88
2021/10/19 10:30:48;;;;;;;6.03;4.80;;;10.60;99.80;;;;;;5067548;28;20492;-88
2021/10/19 10:33:17;;;;;;;5.80;5.30;;;10.60;99.80;;;;;;5048814;28;20522;-88
2021/10/19 10:35:46;;;;;;;6.33;5.37;;;10.70;99.80;;;;;;5058844;28;20476;-88
2021/10/19 10:38:16;;;;;;;7.63;5.43;;;10.70;99.80;;;;;;5063075;28;20476;-88
2021/10/19 10:40:46;;;;;;;7.77;6.10;;;10.80;99.80;;;;;;5078324;28;20462;-88
2021/10/19 10:43:32;;;;;;;7.93;5.77;;;10.90;99.80;;;;;;5060472;28;20896;-88
2021/10/19 10:46:05;;;;;;;7.10;6.30;;;10.90;99.80;;;;;;5064699;28;20553;-88
2021/10/19 10:48:34;;;;;;;11.23;7.00;;;10.90;99.80;;;;;;5061203;28;20913;-88
2021/10/19 10:51:03;;;;;;;11.40;8.10;;;11.00;99.80;;;;;;5054674;28;20464;-88
2021/10/19 10:53:37;;;;;;;11.00;8.43;;;11.00;99.80;;;;;;5076281;28;20479;-88
2021/10/19 10:56:07;;;;;;;10.10;7.40;;;11.20;99.80;;;;;;5046083;28;20500;-88
2021/10/19 10:58:37;;;;;;;10.10;7.40;;;11.20;99.80;;;;;;5022876;28;20477;-88
2021/10/19 11:01:16;;;;;;;10.67;7.63;;;11.30;99.80;;;;;;5003233;28;20500;-88
2021/10/19 11:03:45;;;;;;;9.60;7.87;;;11.30;99.80;;;;;;5026808;28;20462;-88
2021/10/19 11:06:15;;;;;;;9.53;8.10;;;11.40;99.80;;;;;;5046483;28;21148;-87
2021/10/19 11:08:46;;;;;;;11.20;8.20;;;11.30;99.80;;;;;;5025555;28;20479;-88
2021/10/19 11:11:17;;;;;;;11.97;8.80;;;11.30;99.80;;;;;;5030717;28;20471;-88
2021/10/19 11:13:51;;;;;;;10.57;8.47;;;11.20;99.80;;;;;;5021433;28;20470;-88
2021/10/19 11:16:29;;;;;;;12.27;8.63;;;11.20;99.80;;;;;;5019062;28;21029;-87
2021/10/19 11:18:58;;;;;;;12.60;9.77;;;11.20;99.80;;;;;;5045823;28;20458;-87
2021/10/19 11:21:26;;;;;;;12.07;9.43;;;11.20;99.80;;;;;;5030615;28;20472;-86
2021/10/19 11:23:56;;;;;;;14.43;9.40;;;11.20;99.80;;;;;;5039202;28;20999;-87
2021/10/19 11:26:24;;;;;;;10.20;8.70;;;11.20;99.80;;;;;;5044264;28;20497;-87
2021/10/19 11:29:14;;;;;;;14.27;9.87;;;11.20;99.80;;;;;;5037840;28;20840;-88
2021/10/19 11:31:43;;;;;;;15.07;10.43;;;11.20;99.80;;;;;;5044533;28;20465;-88
2021/10/19 11:34:11;;;;;;;13.40;10.53;;;11.20;99.80;;;;;;5046444;28;20477;-87
2021/10/19 11:36:39;;;;;;;14.57;9.73;;;11.20;99.80;;;;;;5037072;28;20472;-89
2021/10/19 11:39:12;;;;;;;17.40;12.07;;;11.30;99.80;;;;;;5047301;28;20549;-87
2021/10/19 11:41:43;;;;;;;20.13;12.90;;;11.30;99.80;;;;;;5050283;28;20563;-88
2021/10/19 11:44:12;;;;;;;21.30;13.30;;;11.30;99.80;;;;;;5049233;28;20476;-87
2021/10/19 11:46:41;;;;;;;22.07;12.53;;;11.30;99.80;;;;;;5028616;28;20843;-88
2021/10/19 11:49:13;;;;;;;17.63;12.10;;;11.30;99.80;;;;;;5023383;28;20483;-87
2021/10/19 11:51:44;;;;;;;18.10;12.70;;;11.30;99.80;;;;;;5049059;28;20568;-89
2021/10/19 11:54:15;;;;;;;20.07;13.50;;;11.40;99.80;;;;;;5048013;28;20481;-87
2021/10/19 11:56:54;;;;;;;21.63;14.30;;;11.40;99.80;;;;;;5039943;28;21052;-87
2021/10/19 11:59:22;;;;;;;20.43;13.83;;;11.30;99.80;;;;;;5041305;28;20543;-88
2021/10/19 12:01:52;;;;;;;18.83;13.00;;;11.40;99.80;;;;;;5048758;28;20467;-88
2021/10/19 12:04:25;;;;;;;18.60;13.33;;;11.40;99.80;;;;;;5037931;28;20490;-88
2021/10/19 12:06:54;;;;;;;20.83;14.20;;;11.40;99.80;;;;;;5046174;28;21079;-88
2021/10/19 12:09:26;;;;;;;24.30;16.20;;;11.40;99.80;;;;;;5068553;28;20469;-88
2021/10/19 12:11:56;;;;;;;24.07;15.57;;;11.40;99.80;;;;;;5068287;28;20557;-89
2021/10/19 12:14:29;;;;;;;20.60;13.13;;;11.50;99.80;;;;;;5064731;28;20478;-88
2021/10/19 12:20:56;;;;;;;23.03;15.07;;;11.50;99.80;;;;;;4934342;28;20552;-87
2021/10/19 12:23:27;;;;;;;22.33;13.50;;;11.60;99.80;;;;;;4984250;28;20576;-88
2021/10/19 12:25:56;;;;;;;21.37;13.60;;;11.60;99.80;;;;;;4986023;28;20494;-88
2021/10/19 12:28:26;;;;;;;20.70;13.70;;;11.70;99.80;;;;;;5001106;28;20475;-88
2021/10/19 12:30:56;;;;;;;19.83;13.53;;;11.70;99.80;;;;;;5040957;28;21008;-88
2021/10/19 12:33:25;;;;;;;20.57;13.77;;;11.70;99.80;;;;;;5040648;28;20481;-88
2021/10/19 12:35:56;;;;;;;25.37;13.80;;;11.60;99.80;;;;;;5048178;28;20555;-85
2021/10/19 12:38:28;;;;;;;19.10;13.87;;;11.60;99.80;;;;;;5052746;28;20490;-88
2021/10/19 12:41:06;;;;;;;18.20;13.10;;;11.60;99.80;;;;;;5058908;28;20967;-88
2021/10/19 12:43:35;;;;;;;22.33;14.10;;;11.60;99.80;;;;;;5048292;28;20476;-89
2021/10/19 12:46:20;;;;;;;;;;;;;;;;;;;;;
2021/10/19 12:48:50;;;;;;;21.63;14.33;;;11.60;99.80;;;;;;5031751;28;20482;-89
2021/10/19 12:51:34;;;;;;;28.07;15.17;;;11.70;99.80;;;;;;5027917;28;20479;-89
2021/10/19 12:54:02;;;;;;;21.40;15.50;;;11.70;99.80;;;;;;5059235;28;20551;-87